Time;durP1;ratioP1;P1;durP2;ratioP2;P2;SDS_P1;SDS_P2;PMS_P1;PMS_P2;Temp;Humidity;BMP_temperature;BMP_pressure;BME280_temperature;BME280_humidity;BME280_pressure;Samples;Min_cycle;Max_cycle;Signal;HPM_P1;HPM_P2
2022/11/01 00:01:22;;;;;;;8.00;3.40;;;16.80;99.90;;;;;;5031062;28;20029;-88
2022/11/01 00:03:52;;;;;;;11.50;4.00;;;16.80;99.90;;;;;;5029817;28;20041;-87
2022/11/01 00:06:28;;;;;;;9.43;3.45;;;16.80;99.90;;;;;;5030795;28;20044;-87
2022/11/01 00:09:06;;;;;;;8.52;3.40;;;16.80;99.90;;;;;;5031204;28;20025;-87
2022/11/01 00:11:37;;;;;;;8.05;3.60;;;16.80;99.90;;;;;;5030109;28;20200;-87
2022/11/01 00:14:18;;;;;;;9.18;3.67;;;16.80;99.90;;;;;;5030160;28;20036;-87
2022/11/01 00:16:46;;;;;;;9.90;3.92;;;16.70;99.90;;;;;;5029601;28;20057;-87
2022/11/01 00:19:15;;;;;;;7.50;3.50;;;16.70;99.90;;;;;;5029892;28;20055;-88
2022/11/01 00:21:43;;;;;;;8.95;3.50;;;16.70;99.90;;;;;;5032187;28;20060;-87
2022/11/01 00:24:09;;;;;;;9.57;3.90;;;16.70;99.90;;;;;;5030568;28;20255;-88
2022/11/01 00:26:49;;;;;;;9.23;3.80;;;16.60;99.90;;;;;;5031780;28;20018;-87
2022/11/01 00:29:17;;;;;;;7.40;4.00;;;16.60;99.90;;;;;;5031597;28;20025;-87
2022/11/01 00:31:53;;;;;;;7.20;3.33;;;16.60;99.90;;;;;;5030548;28;20028;-87
2022/11/01 00:34:22;;;;;;;;;;;16.50;99.90;;;;;;5030996;28;20037;-87
2022/11/01 00:36:53;;;;;;;12.10;4.05;;;16.50;99.90;;;;;;5030311;28;20020;-87
2022/11/01 00:39:25;;;;;;;10.68;4.35;;;16.40;99.90;;;;;;5013109;28;20029;-87
2022/11/01 00:41:53;;;;;;;11.00;3.83;;;16.40;99.90;;;;;;5012981;28;20087;-88
2022/11/01 00:44:21;;;;;;;11.40;4.18;;;16.40;99.90;;;;;;5032634;28;20030;-87
2022/11/01 00:46:47;;;;;;;11.38;4.90;;;16.30;99.90;;;;;;5033565;28;20033;-89
2022/11/01 00:49:23;;;;;;;10.88;4.95;;;16.30;99.90;;;;;;5034650;28;20083;-88
2022/11/01 00:51:52;;;;;;;12.18;4.28;;;16.30;99.90;;;;;;5034539;28;20473;-88
2022/11/01 00:54:18;;;;;;;;;;;16.30;99.90;;;;;;5034924;28;20029;-88
2022/11/01 00:56:44;;;;;;;10.15;4.28;;;16.20;99.90;;;;;;5016722;28;19963;-87
2022/11/01 00:59:19;;;;;;;11.90;3.80;;;16.20;99.90;;;;;;5016834;28;20034;-87
2022/11/01 01:01:57;;;;;;;10.30;4.80;;;16.20;99.90;;;;;;5034460;28;20497;-87
2022/11/01 01:04:30;;;;;;;10.93;4.28;;;16.20;99.90;;;;;;5034421;28;20528;-87
2022/11/01 01:07:12;;;;;;;10.15;4.05;;;16.20;99.90;;;;;;5033766;28;20072;-87
2022/11/01 01:09:53;;;;;;;7.57;3.78;;;16.20;99.90;;;;;;5032996;28;20671;-87
2022/11/01 01:12:19;;;;;;;8.20;4.00;;;16.10;99.90;;;;;;5032969;28;20486;-88
2022/11/01 01:14:48;;;;;;;11.30;4.38;;;16.10;99.90;;;;;;5016292;28;20026;-87
2022/11/01 01:17:27;;;;;;;;;;;;;;;;;;;;;
2022/11/01 01:20:01;;;;;;;11.63;4.25;;;16.20;99.90;;;;;;5032356;28;20030;-87
2022/11/01 01:22:42;;;;;;;10.48;3.63;;;16.20;99.90;;;;;;5032713;28;20025;-88
2022/11/01 01:25:11;;;;;;;10.32;4.10;;;16.20;99.90;;;;;;5032486;28;20033;-87
2022/11/01 01:27:57;;;;;;;;;;;;;;;;;;;;;
2022/11/01 01:30:25;;;;;;;10.00;4.18;;;16.20;99.90;;;;;;5032458;28;20029;-87
2022/11/01 01:32:54;;;;;;;10.00;4.07;;;16.20;99.90;;;;;;5032367;28;20144;-87
2022/11/01 01:38:01;;;;;;;8.52;4.13;;;16.20;99.90;;;;;;5029771;28;20099;-85
2022/11/01 01:40:27;;;;;;;11.90;4.32;;;16.20;99.90;;;;;;5014990;28;20026;-84
2022/11/01 01:42:52;;;;;;;9.23;3.80;;;16.20;99.90;;;;;;5033470;28;20029;-85
2022/11/01 01:45:35;;;;;;;8.90;4.13;;;16.20;99.90;;;;;;5033214;28;20037;-85
2022/11/01 01:48:23;;;;;;;10.05;3.80;;;16.20;99.90;;;;;;5013300;28;20372;-84
2022/11/01 01:50:56;;;;;;;9.68;3.97;;;16.30;99.90;;;;;;5013636;28;20056;-85
2022/11/01 01:53:34;;;;;;;10.63;4.05;;;16.30;99.90;;;;;;5012177;28;20092;-84
2022/11/01 01:56:01;;;;;;;10.73;3.65;;;16.30;99.90;;;;;;5012127;28;20101;-84
2022/11/01 01:58:31;;;;;;;10.38;3.80;;;16.30;99.90;;;;;;5028396;28;20034;-84
2022/11/01 02:00:57;;;;;;;9.80;4.53;;;16.30;99.90;;;;;;5013205;28;20026;-84
2022/11/01 02:03:28;;;;;;;11.20;4.32;;;16.40;99.90;;;;;;5012998;28;20133;-84
2022/11/01 02:06:09;;;;;;;13.10;4.25;;;16.40;99.90;;;;;;5028157;28;20026;-85
2022/11/01 02:08:41;;;;;;;9.07;4.03;;;16.40;99.90;;;;;;5012999;28;20018;-85
2022/11/01 02:11:09;;;;;;;10.43;4.13;;;16.40;99.90;;;;;;5013142;28;20029;-85
2022/11/01 02:13:35;;;;;;;11.32;3.83;;;16.40;99.90;;;;;;5012775;28;20034;-85
2022/11/01 02:16:09;;;;;;;14.68;3.80;;;16.40;99.90;;;;;;5013036;28;20545;-84
2022/11/01 02:19:06;;;;;;;12.50;4.25;;;16.40;99.90;;;;;;5012834;28;20406;-84
2022/11/01 02:21:35;;;;;;;11.98;4.10;;;16.40;99.90;;;;;;4976771;28;20092;-84
2022/11/01 02:24:18;;;;;;;10.55;4.72;;;16.40;99.90;;;;;;5011506;28;20026;-84
2022/11/01 02:27:05;;;;;;;12.20;4.65;;;16.40;99.90;;;;;;5027719;28;20033;-85
2022/11/01 02:29:49;;;;;;;11.68;4.05;;;16.40;99.90;;;;;;4994896;28;20049;-85
2022/11/01 02:32:37;;;;;;;11.82;4.13;;;16.40;99.90;;;;;;5012603;28;20050;-85
2022/11/01 02:35:16;;;;;;;8.57;3.63;;;16.40;99.90;;;;;;5012521;28;20482;-85
2022/11/01 02:37:53;;;;;;;9.13;3.88;;;16.40;99.90;;;;;;4994737;28;20299;-84
2022/11/01 02:40:49;;;;;;;10.45;3.47;;;16.40;99.90;;;;;;4994865;28;20030;-85
2022/11/01 02:43:20;;;;;;;10.32;3.67;;;16.40;99.90;;;;;;5012440;28;20202;-84
2022/11/01 02:45:50;;;;;;;8.10;3.58;;;16.40;99.90;;;;;;4994867;28;20073;-85
2022/11/01 02:48:21;;;;;;;9.30;3.40;;;16.40;99.90;;;;;;5012416;28;20479;-84
2022/11/01 02:50:55;;;;;;;7.72;3.40;;;16.40;99.90;;;;;;5012056;28;20032;-85
2022/11/01 02:53:21;;;;;;;10.38;4.00;;;16.40;99.90;;;;;;4994479;28;20125;-84
2022/11/01 02:55:49;;;;;;;8.18;3.45;;;16.40;99.90;;;;;;5027109;28;20030;-85
2022/11/01 02:58:22;;;;;;;10.13;3.90;;;16.40;99.90;;;;;;5011063;28;20026;-84
2022/11/01 03:00:48;;;;;;;9.27;3.28;;;16.40;99.90;;;;;;4994259;28;20461;-84
2022/11/01 03:03:28;;;;;;;9.73;3.38;;;16.40;99.90;;;;;;4994453;28;20075;-85
2022/11/01 03:06:01;;;;;;;10.07;4.00;;;16.40;99.90;;;;;;4994169;28;20436;-84
2022/11/01 03:08:50;;;;;;;10.65;4.10;;;16.40;99.90;;;;;;5010885;28;20022;-85
2022/11/01 03:11:22;;;;;;;10.35;3.60;;;16.40;99.90;;;;;;5012327;28;20037;-85
2022/11/01 03:14:06;;;;;;;9.77;4.32;;;16.30;99.90;;;;;;5027183;28;20030;-84
2022/11/01 03:16:34;;;;;;;7.85;3.65;;;16.40;99.90;;;;;;5026874;28;20045;-84
2022/11/01 03:19:12;;;;;;;12.23;3.67;;;16.30;99.90;;;;;;5011764;28;20076;-85
2022/11/01 03:21:44;;;;;;;6.77;3.47;;;16.30;99.90;;;;;;5011847;28;20029;-85
2022/11/01 03:24:16;;;;;;;7.30;3.78;;;16.30;99.90;;;;;;5011701;28;20368;-84
2022/11/01 03:26:44;;;;;;;7.63;3.55;;;16.30;99.90;;;;;;4993665;28;20037;-84
2022/11/01 03:29:11;;;;;;;7.22;3.47;;;16.30;99.90;;;;;;5012014;28;20057;-84
2022/11/01 03:31:39;;;;;;;10.40;3.92;;;16.30;99.90;;;;;;5026858;28;20137;-84
2022/11/01 03:34:10;;;;;;;8.23;4.00;;;16.30;99.90;;;;;;5011498;28;20034;-84
2022/11/01 03:36:41;;;;;;;8.85;3.85;;;16.30;99.90;;;;;;5011349;28;20038;-84
2022/11/01 03:39:18;;;;;;;7.90;3.55;;;16.30;99.90;;;;;;4993786;28;20036;-84
2022/11/01 03:41:48;;;;;;;10.75;4.03;;;16.20;99.90;;;;;;5011585;28;20030;-85
2022/11/01 03:44:15;;;;;;;8.35;4.07;;;16.20;99.90;;;;;;5011434;28;20479;-85
2022/11/01 03:46:41;;;;;;;8.00;3.40;;;16.20;99.90;;;;;;5026229;28;20038;-84
2022/11/01 03:49:07;;;;;;;11.68;4.15;;;16.30;99.90;;;;;;5010205;28;20454;-85
2022/11/01 03:51:33;;;;;;;9.38;3.72;;;16.30;99.90;;;;;;5011196;28;20117;-84
2022/11/01 03:53:59;;;;;;;8.30;3.60;;;16.30;99.90;;;;;;5011144;28;20080;-85
2022/11/01 03:56:24;;;;;;;9.75;4.10;;;16.30;99.90;;;;;;5011172;28;20565;-84
2022/11/01 03:58:50;;;;;;;8.32;3.50;;;16.20;99.90;;;;;;5011208;28;20326;-85
2022/11/01 04:01:17;;;;;;;8.38;3.65;;;16.30;99.90;;;;;;4993649;28;20034;-84
2022/11/01 04:03:43;;;;;;;6.85;3.13;;;16.30;99.90;;;;;;5011214;28;20038;-84
2022/11/01 04:06:10;;;;;;;9.48;4.00;;;16.30;99.90;;;;;;5009650;28;20037;-84
2022/11/01 04:08:36;;;;;;;8.18;3.60;;;16.30;99.90;;;;;;5011144;28;20379;-84
2022/11/01 04:11:03;;;;;;;6.05;3.22;;;16.30;99.90;;;;;;5026249;28;20041;-84
2022/11/01 04:13:29;;;;;;;9.90;4.13;;;16.30;99.90;;;;;;5011089;28;20120;-85
2022/11/01 04:21:25;;;;;;;6.85;3.15;;;16.30;99.90;;;;;;5011189;28;20030;-85
2022/11/01 04:23:51;;;;;;;10.52;3.55;;;16.30;99.90;;;;;;5009795;28;20037;-84
2022/11/01 04:26:20;;;;;;;10.32;3.72;;;16.40;99.90;;;;;;5010822;28;20018;-85
2022/11/01 04:28:58;;;;;;;7.88;3.15;;;16.40;99.90;;;;;;5010978;28;20029;-85
2022/11/01 04:31:35;;;;;;;6.75;3.22;;;16.40;99.90;;;;;;5011304;28;20030;-84
2022/11/01 04:34:03;;;;;;;5.88;3.08;;;16.40;99.90;;;;;;4993551;28;20088;-85
2022/11/01 04:36:29;;;;;;;7.13;3.10;;;16.30;99.90;;;;;;5010684;28;20403;-85
2022/11/01 04:38:56;;;;;;;8.23;3.42;;;16.30;99.90;;;;;;4993020;28;20364;-85
2022/11/01 04:41:27;;;;;;;7.90;3.05;;;16.40;99.90;;;;;;5009494;28;20057;-85
2022/11/01 04:43:55;;;;;;;8.95;3.20;;;16.30;99.90;;;;;;4993235;28;20505;-84
2022/11/01 04:46:21;;;;;;;6.97;3.20;;;16.30;99.90;;;;;;5025836;28;20033;-84
2022/11/01 04:48:47;;;;;;;8.05;3.22;;;16.30;99.90;;;;;;5010674;28;20033;-85
2022/11/01 04:51:13;;;;;;;11.93;3.60;;;16.30;99.90;;;;;;5010754;28;20105;-85
2022/11/01 04:53:39;;;;;;;7.82;2.78;;;16.30;99.90;;;;;;5025967;28;20124;-85
2022/11/01 04:56:07;;;;;;;9.48;3.45;;;16.30;99.90;;;;;;5010680;28;20112;-84
2022/11/01 04:58:35;;;;;;;6.93;2.78;;;16.40;99.90;;;;;;5011315;28;20034;-84
2022/11/01 05:01:05;;;;;;;8.90;2.97;;;16.50;99.90;;;;;;4993241;28;20038;-85
2022/11/01 05:03:31;;;;;;;5.47;2.22;;;16.50;99.90;;;;;;5010697;28;20030;-84
2022/11/01 05:05:58;;;;;;;5.28;2.28;;;16.50;99.90;;;;;;5010499;28;20029;-85
2022/11/01 05:08:24;;;;;;;7.97;2.67;;;16.50;99.90;;;;;;5010679;28;20072;-85
2022/11/01 05:10:53;;;;;;;7.72;2.72;;;16.60;99.90;;;;;;5010324;28;20053;-85
2022/11/01 05:13:19;;;;;;;6.97;2.53;;;16.60;99.90;;;;;;5025628;28;20286;-85
2022/11/01 05:15:44;;;;;;;5.55;2.58;;;16.60;99.90;;;;;;5025359;28;20423;-85
2022/11/01 05:18:10;;;;;;;7.75;2.10;;;16.60;99.90;;;;;;5010468;28;20441;-84
2022/11/01 05:20:36;;;;;;;9.25;2.25;;;16.60;99.90;;;;;;5008965;28;20030;-84
2022/11/01 05:23:04;;;;;;;7.00;2.30;;;16.70;99.90;;;;;;5010299;28;20120;-85
2022/11/01 05:25:30;;;;;;;7.25;2.40;;;16.80;99.90;;;;;;5010232;28;20550;-85
2022/11/01 05:28:10;;;;;;;7.35;2.97;;;16.80;99.90;;;;;;4992844;28;20474;-84
2022/11/01 05:30:36;;;;;;;6.10;2.22;;;16.80;99.90;;;;;;5010960;28;20056;-84
2022/11/01 05:33:03;;;;;;;5.97;2.20;;;16.70;99.90;;;;;;4996246;28;20490;-85
2022/11/01 05:35:30;;;;;;;9.85;2.33;;;16.70;99.90;;;;;;5013783;28;20026;-85
2022/11/01 05:37:56;;;;;;;8.20;2.40;;;16.80;99.90;;;;;;4995850;28;20510;-85
2022/11/01 05:40:23;;;;;;;7.40;2.83;;;16.80;99.90;;;;;;5013569;28;20121;-85
2022/11/01 05:42:49;;;;;;;6.55;2.70;;;16.80;99.90;;;;;;4996190;28;20030;-85
2022/11/01 05:45:15;;;;;;;10.57;4.20;;;16.80;99.90;;;;;;4996347;28;20026;-85
2022/11/01 05:47:41;;;;;;;11.23;3.35;;;16.90;99.90;;;;;;4996020;28;20117;-85
2022/11/01 05:50:12;;;;;;;6.90;2.97;;;16.90;99.90;;;;;;5013329;28;20104;-85
2022/11/01 05:52:39;;;;;;;7.03;2.47;;;16.90;99.90;;;;;;5013375;28;20030;-85
2022/11/01 05:55:06;;;;;;;9.18;3.53;;;16.90;99.90;;;;;;5013666;28;20038;-85
2022/11/01 05:57:32;;;;;;;5.70;2.30;;;16.90;99.90;;;;;;5028433;28;20120;-85
2022/11/01 05:59:58;;;;;;;4.25;1.80;;;16.90;99.90;;;;;;4995532;28;20033;-85
2022/11/01 06:02:24;;;;;;;7.05;1.70;;;16.80;99.90;;;;;;5013319;28;20049;-84
2022/11/01 06:04:50;;;;;;;6.68;1.60;;;16.80;99.90;;;;;;5012131;28;20084;-85
2022/11/01 06:07:16;;;;;;;8.85;2.25;;;16.80;99.90;;;;;;5013008;28;20022;-85
2022/11/01 06:09:42;;;;;;;7.70;2.50;;;16.80;99.90;;;;;;4995541;28;20030;-85
2022/11/01 06:12:07;;;;;;;7.80;2.90;;;16.70;99.90;;;;;;5013470;28;20026;-85
2022/11/01 06:14:33;;;;;;;4.50;1.95;;;16.70;99.90;;;;;;5013184;28;20424;-85
2022/11/01 06:16:59;;;;;;;8.13;2.05;;;16.70;99.90;;;;;;5011574;28;20030;-85
2022/11/01 06:19:25;;;;;;;4.60;1.73;;;16.60;99.90;;;;;;5004626;28;20037;-85
2022/11/01 06:21:50;;;;;;;5.93;1.70;;;16.60;99.90;;;;;;5013178;28;20035;-84
2022/11/01 06:24:16;;;;;;;6.60;1.35;;;16.60;99.90;;;;;;5028053;28;20478;-84
2022/11/01 06:26:42;;;;;;;5.55;1.20;;;16.60;99.90;;;;;;5011411;28;20037;-84
2022/11/01 06:29:08;;;;;;;7.85;1.30;;;16.50;99.90;;;;;;5011460;28;20050;-84
2022/11/01 06:31:33;;;;;;;8.57;3.45;;;16.50;99.90;;;;;;5012807;28;20589;-85
2022/11/01 06:33:59;;;;;;;5.55;1.42;;;16.50;99.90;;;;;;4995384;28;20484;-85
2022/11/01 06:36:25;;;;;;;2.70;1.20;;;16.40;99.90;;;;;;5012344;28;20030;-85
2022/11/01 06:38:51;;;;;;;4.90;1.20;;;16.40;99.90;;;;;;5012658;28;20449;-85
2022/11/01 06:41:17;;;;;;;5.53;1.27;;;16.30;99.90;;;;;;4994869;28;20030;-85
2022/11/01 06:43:42;;;;;;;5.65;1.60;;;16.30;99.90;;;;;;5012503;28;20497;-84
2022/11/01 06:46:08;;;;;;;4.43;2.03;;;16.30;99.90;;;;;;5012663;28;20030;-84
2022/11/01 06:48:34;;;;;;;4.93;1.10;;;16.20;99.90;;;;;;5012339;28;20038;-84
2022/11/01 06:51:04;;;;;;;3.28;0.98;;;16.20;99.90;;;;;;5012367;28;20371;-84
2022/11/01 06:53:30;;;;;;;5.55;1.63;;;16.10;99.90;;;;;;5012459;28;20081;-84
2022/11/01 06:55:58;;;;;;;7.90;1.10;;;16.10;99.90;;;;;;5012162;28;20037;-84
2022/11/01 06:58:24;;;;;;;4.60;1.13;;;16.10;99.90;;;;;;5011137;28;20041;-84
2022/11/01 07:00:50;;;;;;;4.85;1.02;;;16.00;99.90;;;;;;5010696;28;20038;-84
2022/11/01 07:03:16;;;;;;;4.20;0.95;;;16.00;99.90;;;;;;5027283;28;20048;-84
2022/11/01 07:05:42;;;;;;;5.00;0.70;;;16.00;99.90;;;;;;5012245;28;20026;-85
2022/11/01 07:08:10;;;;;;;4.60;1.00;;;15.90;99.90;;;;;;5012377;28;20068;-84
2022/11/01 07:10:37;;;;;;;5.68;1.45;;;15.90;99.90;;;;;;5027104;28;20026;-85
2022/11/01 07:13:05;;;;;;;2.80;1.02;;;15.80;99.90;;;;;;5012249;28;20034;-86
2022/11/01 07:15:31;;;;;;;3.47;0.90;;;15.80;99.90;;;;;;4994640;28;20033;-85
2022/11/01 07:18:02;;;;;;;4.53;0.90;;;15.70;99.90;;;;;;5011639;28;20038;-85
2022/11/01 07:20:29;;;;;;;3.90;1.13;;;15.70;99.90;;;;;;4978070;28;20318;-85
2022/11/01 07:23:00;;;;;;;3.75;1.23;;;15.70;99.90;;;;;;5011759;28;20029;-85
2022/11/01 07:25:26;;;;;;;7.47;0.90;;;15.70;99.90;;;;;;5027087;28;20486;-85
2022/11/01 07:27:52;;;;;;;6.70;1.10;;;15.60;99.90;;;;;;4994106;28;20479;-85
2022/11/01 07:30:19;;;;;;;3.25;0.80;;;15.60;99.90;;;;;;5011517;28;20033;-85
2022/11/01 07:32:44;;;;;;;6.05;1.00;;;15.60;99.90;;;;;;5011883;28;20061;-85
2022/11/01 07:35:10;;;;;;;3.95;1.00;;;15.50;99.90;;;;;;5010392;28;20442;-85
2022/11/01 07:37:36;;;;;;;4.88;1.20;;;15.50;99.90;;;;;;5026507;28;20030;-85
2022/11/01 07:40:02;;;;;;;3.30;0.88;;;15.40;99.90;;;;;;5011358;28;20034;-85
2022/11/01 07:42:28;;;;;;;3.13;0.95;;;15.40;99.90;;;;;;5010157;28;20053;-85
2022/11/01 07:44:54;;;;;;;5.07;1.17;;;15.40;99.90;;;;;;4993946;28;20037;-84
2022/11/01 07:47:20;;;;;;;5.97;1.08;;;15.40;99.90;;;;;;4993708;28;20121;-85
2022/11/01 07:49:46;;;;;;;4.13;0.90;;;15.40;99.90;;;;;;5026418;28;20054;-85
2022/11/01 07:52:13;;;;;;;6.25;1.23;;;15.40;99.90;;;;;;5026521;28;20475;-85
2022/11/01 07:54:38;;;;;;;4.85;1.25;;;15.30;99.90;;;;;;5025864;28;20088;-85
2022/11/01 07:57:04;;;;;;;2.70;0.90;;;15.30;99.90;;;;;;4993687;28;20041;-85
2022/11/01 07:59:30;;;;;;;6.78;1.98;;;15.40;99.90;;;;;;5009801;28;20041;-85
2022/11/01 08:01:56;;;;;;;6.50;1.73;;;15.40;99.90;;;;;;5011295;28;20042;-86
2022/11/01 08:04:23;;;;;;;7.57;1.67;;;15.40;99.90;;;;;;5010125;28;20061;-85
2022/11/01 08:06:49;;;;;;;8.00;2.50;;;15.40;99.90;;;;;;5026113;28;20406;-85
2022/11/01 08:09:14;;;;;;;10.52;2.47;;;15.40;99.90;;;;;;5010982;28;20117;-85
2022/11/01 08:11:40;;;;;;;9.68;2.65;;;15.40;99.90;;;;;;4993605;28;20066;-85
2022/11/01 08:14:06;;;;;;;7.10;1.73;;;15.40;99.90;;;;;;5011045;28;20044;-85
2022/11/01 08:16:32;;;;;;;6.30;1.60;;;15.40;99.90;;;;;;5026062;28;20096;-85
2022/11/01 08:18:57;;;;;;;5.68;1.30;;;15.40;99.90;;;;;;5010996;28;20085;-85
2022/11/01 08:21:23;;;;;;;7.38;1.25;;;15.40;99.90;;;;;;5011179;28;20513;-86
2022/11/01 08:23:49;;;;;;;3.35;1.10;;;15.50;99.90;;;;;;5011119;28;20030;-87
2022/11/01 08:26:15;;;;;;;6.43;1.55;;;15.40;99.90;;;;;;5010675;28;20398;-86
2022/11/01 08:28:41;;;;;;;8.57;1.65;;;15.40;99.90;;;;;;5010854;28;20084;-86
2022/11/01 08:31:08;;;;;;;5.75;1.60;;;15.40;99.90;;;;;;5026156;28;20057;-86
2022/11/01 08:33:34;;;;;;;5.88;1.33;;;15.40;99.90;;;;;;5011022;28;20053;-86
2022/11/01 08:36:01;;;;;;;4.30;1.10;;;15.40;99.90;;;;;;5025625;28;20071;-86
2022/11/01 08:38:27;;;;;;;7.30;1.23;;;15.40;99.90;;;;;;5010966;28;20049;-86
2022/11/01 08:40:54;;;;;;;5.85;1.27;;;15.40;99.90;;;;;;5010793;28;20470;-86
2022/11/01 08:43:20;;;;;;;11.98;2.15;;;15.40;99.90;;;;;;5010736;28;20038;-85
2022/11/01 08:45:46;;;;;;;12.52;1.75;;;15.40;99.90;;;;;;4993055;28;20409;-87
2022/11/01 08:48:12;;;;;;;9.65;1.80;;;15.40;99.80;;;;;;5010911;28;20026;-86
2022/11/01 08:50:38;;;;;;;8.93;1.60;;;15.40;99.60;;;;;;5025841;28;20038;-86
2022/11/01 08:53:08;;;;;;;10.68;2.10;;;15.40;99.50;;;;;;5009482;28;20030;-86
2022/11/01 08:55:35;;;;;;;15.82;2.25;;;15.40;99.20;;;;;;4993110;28;20042;-86
2022/11/01 08:58:01;;;;;;;10.13;2.10;;;15.40;98.70;;;;;;5009380;28;20120;-87
2022/11/01 09:00:27;;;;;;;13.88;2.80;;;15.40;98.50;;;;;;5010556;28;20037;-86
2022/11/01 09:02:53;;;;;;;11.35;2.55;;;15.40;98.30;;;;;;5010721;28;20030;-86
2022/11/01 09:05:19;;;;;;;14.10;3.28;;;15.40;97.60;;;;;;5012899;28;20105;-86
2022/11/01 09:07:45;;;;;;;11.93;2.55;;;15.40;98.00;;;;;;5014065;28;20398;-86
2022/11/01 09:10:11;;;;;;;14.65;2.33;;;15.40;98.20;;;;;;5014240;28;20100;-87
2022/11/01 09:12:37;;;;;;;14.90;2.35;;;15.40;98.10;;;;;;4996690;28;20530;-86
2022/11/01 09:15:04;;;;;;;15.07;2.58;;;15.40;98.00;;;;;;5014249;28;20101;-86
2022/11/01 09:17:30;;;;;;;11.40;1.95;;;15.40;98.30;;;;;;5012746;28;20025;-86
2022/11/01 09:19:56;;;;;;;8.73;1.73;;;15.40;97.90;;;;;;5012861;28;20092;-86
2022/11/01 09:22:22;;;;;;;12.45;2.10;;;15.40;97.90;;;;;;5014333;28;20273;-86
2022/11/01 09:24:48;;;;;;;10.90;1.95;;;15.40;97.90;;;;;;5012978;28;20126;-86
2022/11/01 09:27:15;;;;;;;10.82;1.90;;;15.50;97.90;;;;;;4996260;28;20459;-87
2022/11/01 09:29:40;;;;;;;7.15;1.60;;;15.50;97.80;;;;;;5014017;28;20292;-87
2022/11/01 09:32:06;;;;;;;11.70;2.05;;;15.50;97.70;;;;;;5013949;28;20109;-87
2022/11/01 09:34:32;;;;;;;7.60;1.45;;;15.50;97.80;;;;;;5014192;28;20034;-87
2022/11/01 09:36:58;;;;;;;9.25;1.40;;;15.50;97.60;;;;;;5029041;28;20046;-87
2022/11/01 09:39:24;;;;;;;8.80;1.48;;;15.60;97.70;;;;;;5012535;28;20130;-87
2022/11/01 09:42:05;;;;;;;4.97;1.35;;;15.60;97.60;;;;;;5013810;28;20029;-86
2022/11/01 09:44:38;;;;;;;9.35;2.45;;;15.60;97.70;;;;;;5013674;28;20512;-87
2022/11/01 09:47:19;;;;;;;14.50;2.50;;;15.60;97.50;;;;;;4996067;28;20022;-86
2022/11/01 09:49:48;;;;;;;10.15;1.60;;;15.70;97.80;;;;;;4996227;28;20391;-87
2022/11/01 09:52:23;;;;;;;11.00;2.20;;;15.70;97.80;;;;;;4996272;28;20029;-86
2022/11/01 09:54:49;;;;;;;10.38;1.75;;;15.70;97.90;;;;;;5013626;28;20120;-86
2022/11/01 09:57:35;;;;;;;10.35;1.52;;;15.70;97.90;;;;;;5013573;28;20034;-87
2022/11/01 10:00:04;;;;;;;11.82;1.50;;;15.70;98.00;;;;;;5014379;28;20498;-86
2022/11/01 10:02:49;;;;;;;;;;;15.70;98.00;;;;;;5013875;28;20118;-86
2022/11/01 10:05:33;;;;;;;8.38;1.52;;;15.70;98.30;;;;;;5013648;28;19913;-86
2022/11/01 10:08:27;;;;;;;9.93;1.75;;;15.80;98.20;;;;;;5013192;28;20025;-86
2022/11/01 10:11:21;;;;;;;8.65;2.05;;;15.80;97.90;;;;;;5013135;28;20025;-86
2022/11/01 10:14:06;;;;;;;9.60;1.83;;;15.80;98.00;;;;;;5013350;28;20048;-86
2022/11/01 10:16:35;;;;;;;9.38;1.92;;;15.80;98.20;;;;;;5010859;28;20376;-86
2022/11/01 10:19:16;;;;;;;7.97;1.35;;;15.80;98.00;;;;;;4995602;28;20030;-86
2022/11/01 10:21:48;;;;;;;10.10;1.52;;;15.90;98.00;;;;;;4995806;28;20030;-86
2022/11/01 10:24:29;;;;;;;15.15;1.80;;;15.90;98.30;;;;;;4995741;28;20038;-87
2022/11/01 10:27:24;;;;;;;8.38;1.27;;;15.90;98.40;;;;;;5012767;28;20061;-87
2022/11/01 10:30:01;;;;;;;7.35;1.95;;;15.90;98.60;;;;;;5027978;28;20398;-86
2022/11/01 10:32:38;;;;;;;13.50;2.20;;;15.90;98.60;;;;;;5013090;28;20029;-86
2022/11/01 10:35:13;;;;;;;7.25;1.23;;;15.90;98.50;;;;;;5012818;28;20036;-86
2022/11/01 10:37:45;;;;;;;12.77;2.08;;;15.90;98.40;;;;;;5012577;28;20049;-86
2022/11/01 10:40:17;;;;;;;11.70;1.92;;;16.00;98.70;;;;;;5012556;28;20041;-85
2022/11/01 10:42:43;;;;;;;9.80;1.80;;;16.00;98.10;;;;;;5011374;28;20091;-86
2022/11/01 10:45:17;;;;;;;7.93;1.95;;;16.00;98.30;;;;;;5011637;28;20125;-86
2022/11/01 10:47:45;;;;;;;11.15;2.05;;;16.00;98.30;;;;;;5012748;28;20034;-87
2022/11/01 10:50:10;;;;;;;10.63;1.80;;;16.10;98.00;;;;;;5012435;28;20326;-86
2022/11/01 10:52:52;;;;;;;17.35;2.42;;;16.10;97.80;;;;;;5013229;28;20018;-86
2022/11/01 10:55:50;;;;;;;11.63;1.90;;;16.10;98.20;;;;;;5012360;28;20045;-86
2022/11/01 10:58:30;;;;;;;11.23;1.92;;;16.10;98.30;;;;;;5012298;28;20030;-86
2022/11/01 11:00:56;;;;;;;4.38;1.30;;;16.20;98.50;;;;;;5012155;28;20482;-87
2022/11/01 11:03:26;;;;;;;10.15;1.80;;;16.10;98.40;;;;;;4994745;28;20394;-86
2022/11/01 11:05:54;;;;;;;13.68;2.10;;;16.20;98.10;;;;;;5010889;28;20077;-86
2022/11/01 11:08:22;;;;;;;6.65;1.30;;;16.10;98.20;;;;;;5012170;28;20121;-86
2022/11/01 11:10:48;;;;;;;8.95;1.48;;;16.20;98.00;;;;;;5011865;28;20026;-86
2022/11/01 11:13:19;;;;;;;10.90;1.60;;;16.20;98.10;;;;;;5012003;28;20044;-86
2022/11/01 11:15:55;;;;;;;7.07;1.58;;;16.20;98.10;;;;;;5011746;28;20108;-86
2022/11/01 11:18:29;;;;;;;10.13;1.60;;;16.20;98.10;;;;;;4994692;28;20026;-87
2022/11/01 11:21:04;;;;;;;6.47;1.50;;;16.20;98.20;;;;;;5010466;28;20510;-87
2022/11/01 11:23:33;;;;;;;9.52;2.13;;;16.20;97.90;;;;;;4994644;28;20052;-86
2022/11/01 11:26:08;;;;;;;8.57;1.70;;;16.20;97.90;;;;;;4993879;28;20034;-86
2022/11/01 11:28:43;;;;;;;12.50;1.77;;;16.20;97.90;;;;;;4994033;28;20033;-86
2022/11/01 11:31:17;;;;;;;10.05;1.83;;;16.20;97.80;;;;;;5011834;28;20025;-86
2022/11/01 11:34:11;;;;;;;11.50;1.60;;;16.30;97.70;;;;;;5012075;28;20087;-86
2022/11/01 11:36:42;;;;;;;12.82;1.77;;;16.30;97.90;;;;;;5009986;28;20030;-86
2022/11/01 11:39:26;;;;;;;8.15;1.75;;;16.30;97.50;;;;;;5010293;28;20062;-86
2022/11/01 11:41:52;;;;;;;9.15;1.83;;;16.30;97.50;;;;;;5011731;28;20105;-86
2022/11/01 11:44:37;;;;;;;10.38;1.65;;;16.30;97.60;;;;;;5011383;28;20463;-86
2022/11/01 11:47:03;;;;;;;8.90;1.88;;;16.30;97.60;;;;;;5011334;28;20030;-86
2022/11/01 11:49:31;;;;;;;13.10;2.72;;;16.40;97.70;;;;;;4993607;28;20026;-86
2022/11/01 11:51:57;;;;;;;11.15;2.85;;;16.40;97.60;;;;;;5011388;28;20041;-86
2022/11/01 11:54:33;;;;;;;13.32;2.65;;;16.40;97.90;;;;;;5010072;28;20084;-86
2022/11/01 11:57:32;;;;;;;14.52;3.45;;;16.40;98.00;;;;;;5011691;28;20034;-86
2022/11/01 12:00:01;;;;;;;12.60;3.30;;;16.30;97.70;;;;;;4999206;28;20038;-86
2022/11/01 12:02:30;;;;;;;15.18;3.03;;;16.40;97.90;;;;;;5011462;28;20034;-86
2022/11/01 12:05:02;;;;;;;14.27;2.30;;;16.40;98.20;;;;;;4993873;28;20303;-86
2022/11/01 12:07:44;;;;;;;11.25;2.30;;;16.40;98.10;;;;;;5010895;28;20391;-86
2022/11/01 12:10:27;;;;;;;8.63;1.50;;;16.40;97.70;;;;;;5011179;28;20048;-86
2022/11/01 12:12:55;;;;;;;9.50;1.30;;;16.40;97.70;;;;;;5026264;28;20040;-86
2022/11/01 12:15:30;;;;;;;11.35;2.20;;;16.40;97.90;;;;;;4993594;28;20037;-86
2022/11/01 12:18:06;;;;;;;10.98;1.80;;;16.40;97.80;;;;;;5011176;28;20026;-86
2022/11/01 12:20:37;;;;;;;10.82;2.30;;;16.40;97.50;;;;;;4993443;28;20045;-86
2022/11/01 12:23:21;;;;;;;10.30;2.15;;;16.40;97.60;;;;;;5011795;28;20471;-86
2022/11/01 12:25:49;;;;;;;9.43;2.38;;;16.50;97.80;;;;;;5009671;28;20026;-86
2022/11/01 12:28:32;;;;;;;12.85;2.25;;;16.40;97.70;;;;;;5009968;28;20026;-87
2022/11/01 12:31:16;;;;;;;10.32;2.10;;;16.50;97.90;;;;;;4994611;28;20032;-87
2022/11/01 12:33:50;;;;;;;13.30;2.28;;;16.50;97.90;;;;;;5011365;28;20033;-86
2022/11/01 12:36:26;;;;;;;11.35;2.53;;;16.50;97.80;;;;;;5010775;28;20034;-86
2022/11/01 12:39:00;;;;;;;13.68;2.58;;;16.50;97.40;;;;;;5009455;28;20041;-86
2022/11/01 12:42:08;;;;;;;16.63;2.80;;;16.60;97.00;;;;;;5014921;28;20077;-87
2022/11/01 12:44:50;;;;;;;17.25;3.33;;;16.60;97.00;;;;;;4999572;28;20457;-86
2022/11/01 12:47:45;;;;;;;10.75;3.00;;;16.60;97.20;;;;;;5030676;28;20088;-86
2022/11/01 12:50:22;;;;;;;19.33;3.70;;;16.50;97.20;;;;;;4991030;28;20054;-86
2022/11/01 12:52:55;;;;;;;14.40;2.58;;;16.50;97.40;;;;;;5015068;28;20029;-86
2022/11/01 12:55:32;;;;;;;9.55;1.83;;;16.50;97.60;;;;;;5016893;28;20129;-85
2022/11/01 12:58:00;;;;;;;12.35;2.03;;;16.50;97.40;;;;;;5014741;28;20034;-86
2022/11/01 13:00:44;;;;;;;11.50;2.37;;;16.60;97.30;;;;;;4997177;28;20056;-86
2022/11/01 13:03:25;;;;;;;10.07;2.40;;;16.60;96.80;;;;;;5014714;28;20055;-86
2022/11/01 13:06:07;;;;;;;8.77;2.03;;;16.60;96.90;;;;;;5013084;28;20034;-86
2022/11/01 13:08:57;;;;;;;8.60;2.45;;;16.60;96.80;;;;;;5014629;28;20022;-86
2022/11/01 13:11:42;;;;;;;10.60;1.85;;;16.60;97.00;;;;;;4997013;28;20479;-87
2022/11/01 13:14:30;;;;;;;11.98;1.88;;;16.50;97.30;;;;;;5014440;28;20509;-87